createdAt,value
2022-08-12T00:00:08.908Z,22.20
2022-08-12T00:02:54.911Z,22.10
2022-08-12T00:05:59.683Z,22.10
2022-08-12T00:08:52.867Z,22.00
2022-08-12T00:11:39.576Z,21.90
2022-08-12T00:14:25.522Z,21.90
2022-08-12T00:17:11.942Z,21.90
2022-08-12T00:19:57.496Z,21.80
2022-08-12T00:22:43.401Z,21.80
2022-08-12T00:25:55.817Z,21.70
2022-08-12T00:28:35.548Z,21.60
2022-08-12T00:31:21.719Z,21.60
2022-08-12T00:34:08.208Z,21.50
2022-08-12T00:36:53.870Z,21.40
2022-08-12T00:39:40.335Z,21.40
2022-08-12T00:42:12.256Z,21.40
2022-08-12T00:44:42.374Z,21.40
2022-08-12T00:47:24.182Z,21.40
2022-08-12T00:49:54.427Z,21.40
2022-08-12T00:52:21.935Z,21.40
2022-08-12T00:54:51.405Z,21.30
2022-08-12T00:57:23.038Z,21.30
2022-08-12T00:59:59.583Z,21.30
2022-08-12T01:02:31.093Z,21.30
2022-08-12T01:05:22.839Z,21.20
2022-08-12T01:08:09.688Z,21.20
2022-08-12T01:10:57.491Z,21.10
2022-08-12T01:13:26.499Z,21.10
2022-08-12T01:15:56.896Z,21.00
2022-08-12T01:18:33.068Z,21.00
2022-08-12T01:21:21.657Z,20.90
2022-08-12T01:24:28.218Z,20.90
2022-08-12T01:26:54.852Z,20.80
2022-08-12T01:29:32.529Z,20.90
2022-08-12T01:32:05.526Z,20.80
2022-08-12T01:34:37.381Z,20.80
2022-08-12T01:37:07.903Z,20.70
2022-08-12T01:40:34.587Z,20.70
2022-08-12T01:42:39.531Z,20.60
2022-08-12T01:45:07.610Z,20.60
2022-08-12T01:48:09.530Z,20.50
2022-08-12T01:50:46.192Z,20.50
2022-08-12T01:53:15.977Z,20.40
2022-08-12T01:55:46.560Z,20.40
2022-08-12T01:58:55.460Z,20.40
2022-08-12T02:01:27.914Z,20.40
2022-08-12T02:04:25.936Z,20.30
2022-08-12T02:07:50.185Z,20.30
2022-08-12T02:10:50.802Z,20.20
2022-08-12T02:13:48.878Z,20.10
2022-08-12T02:16:36.341Z,20.10
2022-08-12T02:19:27.736Z,20.00
2022-08-12T02:22:38.358Z,20.00
2022-08-12T02:25:17.975Z,20.00
2022-08-12T02:27:51.841Z,19.90
2022-08-12T02:30:22.109Z,19.90
2022-08-12T02:32:51.465Z,19.90
2022-08-12T02:35:21.087Z,19.90
2022-08-12T02:37:51.092Z,19.80
2022-08-12T02:40:19.696Z,19.70
2022-08-12T02:42:51.444Z,19.70
2022-08-12T02:45:25.941Z,19.60
2022-08-12T02:48:00.649Z,19.60
2022-08-12T02:50:34.047Z,19.50
2022-08-12T02:53:02.499Z,19.50
2022-08-12T02:55:35.009Z,19.40
2022-08-12T02:58:12.608Z,19.40
2022-08-12T03:00:43.357Z,19.40
2022-08-12T03:03:13.055Z,19.30
2022-08-12T03:06:02.653Z,19.30
2022-08-12T03:08:35.207Z,19.20
2022-08-12T03:11:27.335Z,19.20
2022-08-12T03:14:04.059Z,19.20
2022-08-12T03:16:33.348Z,19.10
2022-08-12T03:19:00.868Z,19.10
2022-08-12T03:21:55.462Z,19.10
2022-08-12T03:24:18.598Z,19.00
2022-08-12T03:26:48.864Z,19.00
2022-08-12T03:29:16.865Z,19.00
2022-08-12T03:31:44.151Z,18.90
2022-08-12T03:34:14.254Z,18.90
2022-08-12T03:36:42.459Z,18.90
2022-08-12T03:39:17.330Z,18.90
2022-08-12T03:41:59.198Z,18.90
2022-08-12T03:44:58.482Z,18.90
2022-08-12T03:47:49.990Z,18.80
2022-08-12T03:50:36.487Z,18.80
2022-08-12T03:53:24.483Z,18.70
2022-08-12T03:56:10.338Z,18.70
2022-08-12T03:58:56.828Z,18.60
2022-08-12T04:01:26.366Z,18.60
2022-08-12T04:03:53.952Z,18.50
2022-08-12T04:06:34.350Z,18.50
2022-08-12T04:09:16.420Z,18.40
2022-08-12T04:12:04.050Z,18.40
2022-08-12T04:14:32.353Z,18.30
2022-08-12T04:16:59.667Z,18.30
2022-08-12T04:19:27.371Z,18.20
2022-08-12T04:22:02.284Z,18.20
2022-08-12T04:24:38.149Z,18.20
2022-08-12T04:27:10.277Z,18.20
2022-08-12T04:30:16.686Z,18.10
2022-08-12T04:32:27.636Z,18.10
2022-08-12T04:34:55.256Z,18.10
2022-08-12T04:37:23.319Z,18.00
2022-08-12T04:39:51.541Z,18.00
2022-08-12T04:42:20.169Z,18.00
2022-08-12T04:44:48.051Z,18.00
2022-08-12T04:47:16.599Z,18.00
2022-08-12T04:49:45.796Z,18.00
2022-08-12T04:52:13.572Z,18.00
2022-08-12T04:54:41.028Z,17.90
2022-08-12T04:57:09.831Z,17.90
2022-08-12T04:59:46.760Z,17.90
2022-08-12T05:02:20.983Z,17.90
2022-08-12T05:04:53.388Z,17.90
2022-08-12T05:07:21.052Z,17.90
2022-08-12T05:09:59.250Z,17.90
2022-08-12T05:12:34.341Z,17.90
2022-08-12T05:15:01.756Z,17.90
2022-08-12T05:17:28.880Z,17.80
2022-08-12T05:19:58.039Z,17.80
2022-08-12T05:22:27.264Z,17.80
2022-08-12T05:24:54.760Z,17.90
2022-08-12T05:27:22.923Z,17.90
2022-08-12T05:30:06.370Z,17.80
2022-08-12T05:32:36.620Z,17.80
2022-08-12T05:35:06.930Z,17.80
2022-08-12T05:37:35.022Z,17.80
2022-08-12T05:40:08.309Z,17.80
2022-08-12T05:42:37.927Z,17.80
2022-08-12T05:45:05.988Z,17.90
2022-08-12T05:47:53.077Z,17.90
2022-08-12T05:50:20.170Z,17.90
2022-08-12T05:52:48.187Z,17.90
2022-08-12T05:55:15.576Z,17.90
2022-08-12T05:57:48.473Z,17.90
2022-08-12T06:00:17.386Z,17.90
2022-08-12T06:02:46.458Z,18.00
2022-08-12T06:05:14.015Z,18.00
2022-08-12T06:08:01.348Z,18.00
2022-08-12T06:10:33.338Z,18.00
2022-08-12T06:13:06.092Z,18.10
2022-08-12T06:15:38.102Z,18.20
2022-08-12T06:18:13.763Z,18.20
2022-08-12T06:20:46.625Z,18.30
2022-08-12T06:23:15.390Z,18.40
2022-08-12T06:25:43.591Z,18.40
2022-08-12T06:28:17.503Z,18.40
2022-08-12T06:30:53.089Z,18.50
2022-08-12T06:33:59.542Z,18.60
2022-08-12T06:36:22.702Z,18.60
2022-08-12T06:38:50.035Z,18.70
2022-08-12T06:41:36.351Z,18.80
2022-08-12T06:44:06.079Z,18.90
2022-08-12T06:46:37.074Z,19.00
2022-08-12T06:49:04.391Z,19.10
2022-08-12T06:51:32.356Z,19.10
2022-08-12T06:54:00.992Z,19.20
2022-08-12T06:56:59.718Z,19.30
2022-08-12T06:59:15.915Z,19.40
2022-08-12T07:01:49.718Z,19.50
2022-08-12T07:07:09.106Z,19.70
2022-08-12T07:10:07.088Z,19.80
2022-08-12T07:12:27.657Z,19.90
2022-08-12T07:14:56.202Z,20.00
2022-08-12T07:17:23.108Z,20.10
2022-08-12T07:19:51.952Z,20.20
2022-08-12T07:22:19.160Z,20.30
2022-08-12T07:25:06.191Z,20.40
2022-08-12T07:27:40.963Z,20.50
2022-08-12T07:30:09.961Z,20.60
2022-08-12T07:32:37.177Z,20.70
2022-08-12T07:35:04.501Z,20.90
2022-08-12T07:37:31.630Z,21.00
2022-08-12T07:39:59.592Z,21.10
2022-08-12T07:42:30.098Z,21.30
2022-08-12T07:44:57.118Z,21.40
2022-08-12T07:47:24.513Z,21.60
2022-08-12T07:50:05.043Z,21.80
2022-08-12T07:52:38.443Z,21.90
2022-08-12T07:55:06.718Z,22.10
2022-08-12T07:57:34.825Z,22.20
2022-08-12T08:00:06.122Z,22.40
2022-08-12T08:02:38.184Z,22.50
2022-08-12T08:05:05.801Z,22.70
2022-08-12T08:07:32.935Z,22.90
2022-08-12T08:10:01.240Z,23.00
2022-08-12T08:12:48.701Z,23.10
2022-08-12T08:15:16.407Z,23.30
2022-08-12T08:18:04.115Z,23.40
2022-08-12T08:20:41.621Z,23.60
2022-08-12T08:23:15.376Z,23.80
2022-08-12T08:25:42.383Z,23.90
2022-08-12T08:28:14.698Z,24.10
2022-08-12T08:30:44.357Z,24.30
2022-08-12T08:33:22.738Z,24.40
2022-08-12T08:35:54.354Z,24.50
2022-08-12T08:38:30.765Z,24.70
2022-08-12T08:42:14.681Z,24.90
2022-08-12T08:44:06.207Z,25.00
2022-08-12T08:46:37.715Z,25.20
2022-08-12T08:49:05.604Z,25.40
2022-08-12T08:51:32.830Z,25.50
2022-08-12T08:53:59.861Z,25.70
2022-08-12T08:56:29.147Z,25.80
2022-08-12T08:58:57.620Z,25.90
2022-08-12T09:01:25.044Z,26.20
2022-08-12T09:05:08.850Z,26.30
2022-08-12T09:09:42.930Z,26.60
2022-08-12T09:12:36.194Z,26.80
2022-08-12T09:15:07.108Z,26.90
2022-08-12T09:20:43.498Z,27.30
2022-08-12T09:23:57.372Z,27.40
2022-08-12T09:26:04.487Z,27.60
2022-08-12T09:28:33.535Z,27.80
2022-08-12T09:31:00.542Z,27.90
2022-08-12T09:34:28.566Z,28.10
2022-08-12T09:36:30.930Z,28.30
2022-08-12T09:40:02.131Z,28.40
2022-08-12T09:42:39.582Z,28.60
2022-08-12T09:45:22.763Z,28.70
2022-08-12T09:47:56.918Z,28.80
2022-08-12T09:50:26.712Z,28.90
2022-08-12T09:53:15.120Z,29.00
2022-08-12T09:56:07.290Z,29.20
2022-08-12T09:58:57.791Z,29.30
2022-08-12T10:01:23.134Z,29.40
2022-08-12T10:03:55.669Z,29.40
2022-08-12T10:06:32.442Z,29.60
2022-08-12T10:09:08.414Z,29.70
2022-08-12T10:12:09.904Z,29.80
2022-08-12T10:14:38.223Z,29.90
2022-08-12T10:17:08.710Z,30.00
2022-08-12T10:19:37.953Z,30.20
2022-08-12T10:22:16.622Z,30.30
2022-08-12T10:25:17.467Z,30.40
2022-08-12T10:28:24.898Z,30.50
2022-08-12T10:30:58.447Z,30.60
2022-08-12T10:33:31.188Z,30.70
2022-08-12T10:36:00.400Z,30.80
2022-08-12T10:38:38.651Z,30.90
2022-08-12T10:41:56.542Z,31.00
2022-08-12T10:44:17.417Z,31.10
2022-08-12T10:46:49.361Z,31.30
2022-08-12T10:50:02.982Z,31.30
2022-08-12T10:52:34.449Z,31.40
2022-08-12T10:54:55.940Z,31.40
2022-08-12T10:58:15.559Z,31.50
2022-08-12T11:00:32.078Z,31.60
2022-08-12T11:04:27.683Z,31.70
2022-08-12T11:07:09.474Z,31.70
2022-08-12T11:08:43.203Z,31.80
2022-08-12T11:11:27.654Z,31.80
2022-08-12T11:14:05.330Z,31.80
2022-08-12T11:16:33.391Z,31.90
2022-08-12T11:19:02.774Z,32.10
2022-08-12T11:21:56.666Z,32.10
2022-08-12T11:24:31.705Z,32.10
2022-08-12T11:27:07.339Z,32.10
2022-08-12T11:30:01.483Z,32.20
2022-08-12T11:32:23.847Z,32.20
2022-08-12T11:34:54.579Z,32.30
2022-08-12T11:37:26.415Z,32.40
2022-08-12T11:42:39.837Z,32.40
2022-08-12T11:45:16.972Z,32.40
2022-08-12T11:47:44.595Z,32.50
2022-08-12T11:50:19.535Z,32.50
2022-08-12T11:52:56.505Z,32.60
2022-08-12T11:55:27.485Z,32.60
2022-08-12T11:58:40.592Z,32.70
2022-08-12T12:03:41.568Z,32.80
2022-08-12T12:06:17.956Z,32.80
2022-08-12T12:08:50.877Z,32.80
2022-08-12T12:11:19.094Z,32.90
2022-08-12T12:14:08.582Z,33.00
2022-08-12T12:16:38.189Z,33.10
2022-08-12T12:19:07.132Z,33.20
2022-08-12T12:21:47.071Z,33.20
2022-08-12T12:24:21.838Z,33.30
2022-08-12T12:27:00.635Z,33.40
2022-08-12T12:30:13.856Z,33.40
2022-08-12T12:32:28.905Z,33.60
2022-08-12T12:35:14.499Z,33.60
2022-08-12T12:38:05.421Z,33.70
2022-08-12T12:40:41.628Z,33.80
2022-08-12T12:43:12.355Z,33.90
2022-08-12T12:45:44.613Z,33.90
2022-08-12T12:48:14.367Z,34.00
2022-08-12T12:51:12.065Z,34.10
2022-08-12T12:54:06.411Z,34.10
2022-08-12T12:56:33.820Z,34.10
2022-08-12T12:59:03.789Z,34.20
2022-08-12T13:01:36.341Z,34.20
2022-08-12T13:04:12.077Z,34.20
2022-08-12T13:06:41.946Z,34.20
2022-08-12T13:09:13.238Z,34.20
2022-08-12T13:11:42.077Z,34.30
2022-08-12T13:14:27.871Z,34.30
2022-08-12T13:16:57.766Z,34.30
2022-08-12T13:19:38.629Z,34.30
2022-08-12T13:22:23.445Z,34.30
2022-08-12T13:24:56.823Z,34.30
2022-08-12T13:27:35.329Z,34.40
2022-08-12T13:30:11.995Z,34.40
2022-08-12T13:32:56.728Z,34.40
2022-08-12T13:36:03.022Z,34.40
2022-08-12T13:38:34.184Z,34.40
2022-08-12T13:41:04.301Z,34.40
2022-08-12T13:43:40.314Z,34.40
2022-08-12T13:46:12.063Z,34.50
2022-08-12T13:48:45.095Z,34.60
2022-08-12T13:51:14.154Z,34.60
2022-08-12T13:53:57.578Z,34.70
2022-08-12T13:56:35.066Z,34.80
2022-08-12T13:59:09.777Z,34.80
2022-08-12T14:01:40.541Z,34.80
2022-08-12T14:04:11.563Z,34.80
2022-08-12T14:06:40.375Z,34.80
2022-08-12T14:09:15.504Z,34.80
2022-08-12T14:11:48.287Z,34.90
2022-08-12T14:14:25.552Z,34.90
2022-08-12T14:16:54.074Z,35.00
2022-08-12T14:19:22.735Z,35.00
2022-08-12T14:21:59.393Z,35.00
2022-08-12T14:24:35.089Z,35.10
2022-08-12T14:27:03.202Z,35.10
2022-08-12T14:29:56.112Z,35.10
2022-08-12T14:32:18.247Z,35.10
2022-08-12T14:34:51.312Z,35.20
2022-08-12T14:37:55.899Z,35.20
2022-08-12T14:40:06.779Z,35.20
2022-08-12T14:42:33.747Z,35.30
2022-08-12T14:45:02.164Z,35.30
2022-08-12T14:47:35.487Z,35.30
2022-08-12T14:50:58.255Z,35.40
2022-08-12T14:58:31.769Z,35.50
2022-08-12T15:01:21.342Z,35.40
2022-08-12T15:03:56.933Z,35.40
2022-08-12T15:06:44.078Z,35.30
2022-08-12T15:09:16.109Z,35.40
2022-08-12T15:11:54.355Z,35.30
2022-08-12T15:14:27.491Z,35.30
2022-08-12T15:16:57.394Z,35.30
2022-08-12T15:20:31.858Z,35.30
2022-08-12T15:22:38.733Z,35.20
2022-08-12T15:25:07.433Z,35.20
2022-08-12T15:28:04.758Z,35.20
2022-08-12T15:30:32.096Z,35.10
2022-08-12T15:32:59.411Z,35.10
2022-08-12T15:35:31.226Z,35.00
2022-08-12T15:38:09.616Z,35.00
2022-08-12T15:40:46.754Z,35.00
2022-08-12T15:43:51.543Z,35.00
2022-08-12T15:46:15.393Z,35.00
2022-08-12T15:48:47.447Z,35.00
2022-08-12T15:51:59.627Z,35.00
2022-08-12T15:54:34.312Z,35.00
2022-08-12T15:57:05.642Z,34.90
2022-08-12T16:00:00.793Z,34.90
2022-08-12T16:02:20.550Z,34.90
2022-08-12T16:04:50.480Z,34.90
2022-08-12T16:07:30.124Z,34.80
2022-08-12T16:10:08.741Z,34.80
2022-08-12T16:12:54.976Z,34.70
2022-08-12T16:15:24.817Z,34.60
2022-08-12T16:18:17.761Z,34.50
2022-08-12T16:20:41.716Z,34.50
2022-08-12T16:23:36.386Z,34.40
2022-08-12T16:26:06.084Z,34.40
2022-08-12T16:28:41.301Z,34.40
2022-08-12T16:31:14.516Z,34.30
2022-08-12T16:33:59.535Z,34.30
2022-08-12T16:36:31.559Z,34.20
2022-08-12T16:39:01.779Z,34.20
2022-08-12T16:41:39.805Z,34.10
2022-08-12T16:44:08.868Z,34.10
2022-08-12T16:46:37.497Z,34.00
2022-08-12T16:49:13.179Z,33.90
2022-08-12T16:51:47.041Z,33.90
2022-08-12T16:54:16.995Z,33.80
2022-08-12T16:56:54.640Z,33.80
2022-08-12T16:59:22.852Z,33.80
2022-08-12T17:01:51.722Z,33.70
2022-08-12T17:04:19.062Z,33.60
2022-08-12T17:06:47.970Z,33.60
2022-08-12T17:09:17.871Z,33.50
2022-08-12T17:11:49.083Z,33.50
2022-08-12T17:14:17.045Z,33.40
2022-08-12T17:16:48.427Z,33.30
2022-08-12T17:19:18.101Z,33.30
2022-08-12T17:22:02.246Z,33.10
2022-08-12T17:24:32.545Z,33.00
2022-08-12T17:27:15.914Z,32.90
2022-08-12T17:30:00.978Z,32.80
2022-08-12T17:32:37.198Z,32.60
2022-08-12T17:35:23.362Z,32.60
2022-08-12T17:38:02.148Z,32.40
2022-08-12T17:40:35.541Z,32.30
2022-08-12T17:43:52.068Z,32.20
2022-08-12T17:45:58.850Z,32.00
2022-08-12T17:48:35.161Z,31.90
2022-08-12T17:51:15.321Z,31.90
2022-08-12T17:54:10.271Z,31.80
2022-08-12T17:56:36.831Z,31.70
2022-08-12T17:59:04.091Z,31.60
2022-08-12T18:01:36.009Z,31.50
2022-08-12T18:04:21.471Z,31.40
2022-08-12T18:06:51.383Z,31.30
2022-08-12T18:09:20.217Z,31.20
2022-08-12T18:12:08.287Z,31.20
2022-08-12T18:14:41.337Z,31.00
2022-08-12T18:17:17.969Z,30.90
2022-08-12T18:20:06.737Z,30.80
2022-08-12T18:22:32.817Z,30.70
2022-08-12T18:26:10.100Z,30.60
2022-08-12T18:28:16.111Z,30.50
2022-08-12T18:30:53.034Z,30.30
2022-08-12T18:33:25.139Z,30.30
2022-08-12T18:35:55.584Z,30.20
2022-08-12T18:38:25.305Z,30.10
2022-08-12T18:41:22.034Z,29.90
2022-08-12T18:44:07.756Z,29.80
2022-08-12T18:46:53.844Z,29.80
2022-08-12T18:49:33.294Z,29.60
2022-08-12T18:52:08.124Z,29.50
2022-08-12T18:54:41.579Z,29.40
2022-08-12T18:57:19.787Z,29.30
2022-08-12T19:00:07.637Z,29.30
2022-08-12T19:02:38.994Z,29.10
2022-08-12T19:05:11.073Z,29.00
2022-08-12T19:07:49.520Z,28.90
2022-08-12T19:10:29.478Z,28.80
2022-08-12T19:13:23.200Z,28.60
2022-08-12T19:15:57.448Z,28.50
2022-08-12T19:18:29.400Z,28.40
2022-08-12T19:20:58.623Z,28.30
2022-08-12T19:23:33.807Z,28.20
2022-08-12T19:26:04.553Z,28.10
2022-08-12T19:28:34.437Z,28.00
2022-08-12T19:31:55.682Z,27.90
2022-08-12T19:35:06.642Z,27.80
2022-08-12T19:38:03.059Z,27.70
2022-08-12T19:40:31.140Z,27.60
2022-08-12T19:43:17.937Z,27.40
2022-08-12T19:45:56.690Z,27.40
2022-08-12T19:48:30.393Z,27.30
2022-08-12T19:51:08.716Z,27.20
2022-08-12T19:53:56.795Z,27.20
2022-08-12T19:56:25.114Z,27.10
2022-08-12T19:58:52.575Z,27.00
2022-08-12T20:01:21.794Z,26.90
2022-08-12T20:03:57.633Z,26.90
2022-08-12T20:06:33.907Z,26.90
2022-08-12T20:09:01.522Z,26.80
2022-08-12T20:12:10.209Z,26.80
2022-08-12T20:14:19.025Z,26.70
2022-08-12T20:16:52.831Z,26.60
2022-08-12T20:19:28.604Z,26.60
2022-08-12T20:22:24.617Z,26.50
2022-08-12T20:25:07.195Z,26.40
2022-08-12T20:28:03.028Z,26.40
2022-08-12T20:30:52.360Z,26.30
2022-08-12T20:33:17.517Z,26.20
2022-08-12T20:36:13.837Z,26.10
2022-08-12T20:38:38.137Z,26.10
2022-08-12T20:41:17.849Z,26.10
2022-08-12T20:43:52.135Z,26.00
2022-08-12T20:46:20.484Z,26.00
2022-08-12T20:48:55.311Z,25.90
2022-08-12T20:51:27.613Z,25.90
2022-08-12T20:53:59.024Z,25.80
2022-08-12T20:56:36.949Z,25.80
2022-08-12T20:59:06.023Z,25.80
2022-08-12T21:01:45.986Z,25.70
2022-08-12T21:04:35.450Z,25.60
2022-08-12T21:07:08.713Z,25.60
2022-08-12T21:09:42.486Z,25.60
2022-08-12T21:12:37.026Z,25.50
2022-08-12T21:15:22.742Z,25.50
2022-08-12T21:18:10.473Z,25.40
2022-08-12T21:20:50.809Z,25.40
2022-08-12T21:23:21.230Z,25.30
2022-08-12T21:25:51.125Z,25.30
2022-08-12T21:28:20.833Z,25.20
2022-08-12T21:31:11.741Z,25.10
2022-08-12T21:33:58.309Z,25.00
2022-08-12T21:36:34.920Z,24.90
2022-08-12T21:39:20.431Z,24.80
2022-08-12T21:41:53.062Z,24.80
2022-08-12T21:45:43.901Z,24.70
2022-08-12T21:47:22.291Z,24.60
2022-08-12T21:50:02.266Z,24.50
2022-08-12T21:52:34.834Z,24.40
2022-08-12T21:55:19.325Z,24.40
2022-08-12T21:57:53.389Z,24.30
2022-08-12T22:00:32.065Z,24.30
2022-08-12T22:04:01.365Z,24.20
2022-08-12T22:06:30.984Z,24.20
2022-08-12T22:09:16.247Z,24.10
2022-08-12T22:11:56.824Z,24.10
2022-08-12T22:14:28.684Z,24.00
2022-08-12T22:16:57.270Z,24.00
2022-08-12T22:19:24.370Z,23.90
2022-08-12T22:21:58.432Z,23.90
2022-08-12T22:24:30.373Z,23.90
2022-08-12T22:27:14.295Z,23.90
2022-08-12T22:30:08.570Z,23.90
2022-08-12T22:32:49.660Z,23.80
2022-08-12T22:35:56.664Z,23.80
2022-08-12T22:38:24.803Z,23.80
2022-08-12T22:41:06.658Z,23.80
2022-08-12T22:44:00.845Z,23.70
2022-08-12T22:46:52.904Z,23.70
2022-08-12T22:49:37.135Z,23.60
2022-08-12T22:52:13.480Z,23.60
2022-08-12T22:54:46.343Z,23.50
2022-08-12T22:57:53.317Z,23.40
2022-08-12T23:00:23.855Z,23.40
2022-08-12T23:02:51.801Z,23.40
2022-08-12T23:05:36.970Z,23.40
2022-08-12T23:08:13.892Z,23.30
2022-08-12T23:10:46.473Z,23.30
2022-08-12T23:13:43.899Z,23.30
2022-08-12T23:16:28.116Z,23.30
2022-08-12T23:19:01.706Z,23.20
2022-08-12T23:22:04.978Z,23.20
2022-08-12T23:24:35.260Z,23.30
2022-08-12T23:27:21.609Z,23.20
2022-08-12T23:30:17.389Z,23.20
2022-08-12T23:32:36.956Z,23.10
2022-08-12T23:35:07.016Z,23.10
2022-08-12T23:37:47.516Z,23.10
2022-08-12T23:40:22.203Z,23.00
2022-08-12T23:42:49.995Z,23.00
2022-08-12T23:45:20.195Z,23.00
2022-08-12T23:47:58.483Z,22.90
2022-08-12T23:50:33.960Z,22.90
2022-08-12T23:53:22.385Z,22.90
2022-08-12T23:55:49.876Z,22.90
2022-08-12T23:58:25.899Z,22.80
